createdAt,value
2022-08-30T00:01:17.668Z,3.85
2022-08-30T00:03:49.241Z,4.18
2022-08-30T00:06:21.036Z,3.53
2022-08-30T00:08:51.700Z,3.40
2022-08-30T00:11:24.773Z,3.05
2022-08-30T00:13:56.215Z,3.13
2022-08-30T00:16:26.913Z,2.92
2022-08-30T00:18:57.610Z,3.33
2022-08-30T00:21:28.816Z,3.28
2022-08-30T00:23:58.546Z,3.05
2022-08-30T00:26:28.105Z,3.15
2022-08-30T00:28:57.688Z,3.45
2022-08-30T00:31:27.583Z,3.30
2022-08-30T00:33:57.646Z,3.60
2022-08-30T00:36:27.259Z,3.13
2022-08-30T00:38:57.006Z,3.13
2022-08-30T00:41:26.570Z,3.00
2022-08-30T00:43:56.175Z,2.63
2022-08-30T00:46:26.198Z,3.00
2022-08-30T00:48:57.434Z,2.63
2022-08-30T00:51:27.856Z,3.17
2022-08-30T00:53:59.886Z,3.15
2022-08-30T00:56:31.043Z,2.97
2022-08-30T00:59:03.505Z,3.03
2022-08-30T01:01:34.440Z,2.60
2022-08-30T01:04:05.379Z,2.40
2022-08-30T01:06:35.818Z,2.33
2022-08-30T01:09:07.065Z,2.75
2022-08-30T01:11:39.500Z,2.85
2022-08-30T01:14:10.634Z,2.92
2022-08-30T01:16:41.818Z,2.67
2022-08-30T01:19:39.186Z,2.08
2022-08-30T01:22:34.405Z,2.03
2022-08-30T01:25:08.045Z,2.47
2022-08-30T01:27:41.791Z,2.90
2022-08-30T01:30:12.667Z,2.53
2022-08-30T01:32:47.018Z,2.50
2022-08-30T01:35:19.411Z,2.90
2022-08-30T01:37:50.029Z,2.20
2022-08-30T01:40:22.199Z,2.25
2022-08-30T01:42:52.069Z,2.55
2022-08-30T01:45:21.718Z,2.40
2022-08-30T01:47:52.229Z,2.10
2022-08-30T01:50:21.771Z,1.98
2022-08-30T01:52:51.275Z,2.40
2022-08-30T01:55:21.260Z,2.28
2022-08-30T01:57:51.498Z,2.72
2022-08-30T02:00:21.355Z,2.47
2022-08-30T02:02:51.014Z,2.38
2022-08-30T02:05:21.447Z,2.25
2022-08-30T02:07:51.008Z,2.20
2022-08-30T02:10:20.609Z,2.20
2022-08-30T02:12:50.156Z,2.47
2022-08-30T02:15:19.967Z,2.50
2022-08-30T02:17:49.589Z,2.20
2022-08-30T02:20:19.600Z,1.95
2022-08-30T02:22:49.673Z,2.63
2022-08-30T02:25:21.293Z,2.65
2022-08-30T02:27:51.379Z,2.35
2022-08-30T02:30:21.598Z,2.15
2022-08-30T02:32:51.126Z,2.95
2022-08-30T02:35:20.750Z,1.90
2022-08-30T02:37:50.373Z,1.92
2022-08-30T02:40:20.153Z,2.30
2022-08-30T02:42:50.579Z,2.15
2022-08-30T02:45:20.268Z,2.50
2022-08-30T02:47:50.010Z,2.60
2022-08-30T02:50:19.724Z,3.13
2022-08-30T02:52:49.381Z,2.40
2022-08-30T02:55:19.199Z,2.33
2022-08-30T02:57:49.368Z,2.83
2022-08-30T03:00:22.092Z,2.70
2022-08-30T03:02:51.730Z,2.38
2022-08-30T03:05:21.715Z,2.70
2022-08-30T03:07:51.300Z,2.55
2022-08-30T03:10:21.070Z,2.22
2022-08-30T03:12:51.102Z,2.00
2022-08-30T03:15:20.651Z,2.10
2022-08-30T03:17:50.249Z,2.15
2022-08-30T03:20:20.281Z,1.88
2022-08-30T03:22:50.064Z,2.13
2022-08-30T03:25:20.081Z,2.40
2022-08-30T03:27:51.051Z,2.10
2022-08-30T03:30:22.446Z,2.22
2022-08-30T03:32:52.703Z,2.70
2022-08-30T03:35:22.409Z,2.20
2022-08-30T03:37:56.424Z,2.53
2022-08-30T03:40:26.363Z,2.30
2022-08-30T03:42:56.038Z,2.25
2022-08-30T03:45:25.724Z,2.53
2022-08-30T03:47:55.339Z,2.33
2022-08-30T03:50:25.265Z,2.47
2022-08-30T03:52:55.083Z,2.05
2022-08-30T03:55:24.686Z,2.25
2022-08-30T03:57:54.251Z,1.90
2022-08-30T04:00:24.527Z,2.13
2022-08-30T04:02:54.088Z,2.47
2022-08-30T04:05:24.325Z,2.20
2022-08-30T04:07:54.043Z,2.17
2022-08-30T04:10:24.197Z,2.30
2022-08-30T04:12:53.820Z,2.38
2022-08-30T04:15:23.349Z,2.28
2022-08-30T04:17:52.905Z,2.15
2022-08-30T04:20:22.931Z,2.25
2022-08-30T04:22:54.505Z,2.08
2022-08-30T04:25:24.132Z,2.20
2022-08-30T04:27:54.331Z,2.22
2022-08-30T04:30:26.698Z,2.20
2022-08-30T04:32:58.732Z,2.17
2022-08-30T04:35:29.312Z,2.40
2022-08-30T04:37:58.833Z,2.40
2022-08-30T04:40:28.417Z,1.80
2022-08-30T04:42:57.987Z,2.13
2022-08-30T04:45:28.110Z,1.90
2022-08-30T04:47:58.160Z,1.88
2022-08-30T04:50:28.212Z,2.47
2022-08-30T04:52:57.715Z,2.20
2022-08-30T04:55:27.919Z,1.95
2022-08-30T04:57:58.096Z,2.75
2022-08-30T05:00:27.749Z,2.05
2022-08-30T05:02:57.375Z,2.13
2022-08-30T05:05:46.679Z,2.10
2022-08-30T05:08:22.049Z,2.13
2022-08-30T05:10:54.678Z,2.50
2022-08-30T05:13:35.072Z,2.38
2022-08-30T05:16:07.629Z,2.42
2022-08-30T05:18:39.211Z,1.90
2022-08-30T05:21:22.493Z,1.67
2022-08-30T05:23:53.077Z,2.42
2022-08-30T05:26:25.918Z,2.00
2022-08-30T05:28:55.987Z,2.15
2022-08-30T05:31:29.314Z,1.63
2022-08-30T05:33:59.413Z,1.70
2022-08-30T05:36:31.489Z,1.70
2022-08-30T05:39:02.124Z,2.03
2022-08-30T05:41:36.875Z,2.20
2022-08-30T05:44:07.955Z,1.67
2022-08-30T05:46:38.255Z,1.55
2022-08-30T05:49:09.740Z,2.33
2022-08-30T05:51:43.444Z,1.50
2022-08-30T05:54:14.568Z,1.85
2022-08-30T05:56:46.921Z,1.38
2022-08-30T05:59:17.707Z,1.48
2022-08-30T06:01:49.253Z,1.58
2022-08-30T06:04:19.515Z,1.50
2022-08-30T06:06:49.151Z,1.92
2022-08-30T06:09:19.241Z,1.70
2022-08-30T06:11:49.551Z,1.50
2022-08-30T06:14:19.307Z,1.52
2022-08-30T06:16:49.205Z,1.70
2022-08-30T06:19:19.348Z,1.48
2022-08-30T06:21:52.886Z,1.48
2022-08-30T06:24:35.652Z,1.67
2022-08-30T06:27:12.834Z,1.63
2022-08-30T06:29:43.372Z,1.40
2022-08-30T06:32:12.971Z,1.38
2022-08-30T06:34:42.477Z,1.02
2022-08-30T06:37:12.010Z,1.30
2022-08-30T06:40:00.362Z,1.42
2022-08-30T06:42:33.575Z,1.52
2022-08-30T06:45:10.342Z,1.80
2022-08-30T06:47:42.231Z,1.42
2022-08-30T06:50:15.944Z,1.45
2022-08-30T06:52:47.234Z,1.65
2022-08-30T06:55:18.533Z,1.10
2022-08-30T06:57:48.862Z,1.25
2022-08-30T07:00:19.672Z,1.48
2022-08-30T07:02:49.265Z,1.75
2022-08-30T07:05:19.644Z,1.40
2022-08-30T07:07:49.319Z,1.42
2022-08-30T07:10:19.259Z,1.75
2022-08-30T07:12:49.345Z,1.67
2022-08-30T07:15:22.198Z,1.92
2022-08-30T07:18:11.981Z,1.50
2022-08-30T07:20:41.619Z,1.48
2022-08-30T07:23:12.180Z,1.55
2022-08-30T07:25:43.212Z,1.30
2022-08-30T07:28:13.543Z,1.48
2022-08-30T07:30:44.892Z,1.50
2022-08-30T07:33:14.468Z,1.48
2022-08-30T07:35:44.145Z,1.77
2022-08-30T07:38:17.373Z,2.55
2022-08-30T07:40:47.022Z,1.80
2022-08-30T07:43:16.730Z,1.50
2022-08-30T07:45:46.594Z,1.45
2022-08-30T07:48:16.164Z,1.52
2022-08-30T07:50:47.642Z,1.63
2022-08-30T07:53:17.547Z,1.52
2022-08-30T07:55:47.375Z,1.55
2022-08-30T07:58:17.474Z,1.55
2022-08-30T08:00:47.822Z,1.23
2022-08-30T08:03:17.504Z,1.50
2022-08-30T08:05:47.867Z,1.60
2022-08-30T08:08:17.556Z,2.15
2022-08-30T08:10:47.313Z,1.52
2022-08-30T08:13:16.946Z,1.67
2022-08-30T08:15:46.989Z,1.40
2022-08-30T08:18:16.844Z,1.48
2022-08-30T08:20:46.493Z,1.35
2022-08-30T08:23:16.155Z,1.20
2022-08-30T08:25:45.832Z,1.20
2022-08-30T08:28:15.757Z,1.52
2022-08-30T08:30:48.299Z,1.80
2022-08-30T08:33:19.144Z,1.33
2022-08-30T08:35:49.438Z,1.13
2022-08-30T08:38:19.279Z,1.38
2022-08-30T08:41:25.626Z,1.60
2022-08-30T08:43:55.354Z,1.17
2022-08-30T08:46:39.734Z,1.48
2022-08-30T08:49:15.365Z,1.80
2022-08-30T08:52:04.776Z,1.55
2022-08-30T08:54:46.175Z,1.60
2022-08-30T08:57:17.083Z,1.70
2022-08-30T08:59:48.172Z,1.38
2022-08-30T09:02:30.329Z,1.50
2022-08-30T09:05:04.401Z,1.50
2022-08-30T09:07:43.255Z,1.50
2022-08-30T09:10:12.989Z,1.20
2022-08-30T09:12:42.605Z,1.20
2022-08-30T09:15:21.792Z,1.48
2022-08-30T09:17:59.454Z,1.20
2022-08-30T09:20:33.895Z,1.20
2022-08-30T09:23:25.286Z,1.55
2022-08-30T09:26:06.961Z,1.45
2022-08-30T09:28:58.218Z,1.20
2022-08-30T09:31:34.611Z,1.70
2022-08-30T09:34:17.863Z,1.70
2022-08-30T09:36:54.379Z,1.50
2022-08-30T09:39:35.524Z,1.45
2022-08-30T09:42:27.786Z,1.27
2022-08-30T09:45:12.014Z,1.55
2022-08-30T09:47:45.232Z,1.67
2022-08-30T09:50:24.821Z,1.60
2022-08-30T09:53:23.522Z,1.55
2022-08-30T09:56:22.613Z,1.60
2022-08-30T09:59:31.334Z,2.10
2022-08-30T10:02:28.778Z,2.10
2022-08-30T10:05:24.244Z,2.00
2022-08-30T10:08:20.929Z,2.38
2022-08-30T10:11:15.597Z,2.10
2022-08-30T10:14:22.377Z,2.08
2022-08-30T10:17:17.518Z,2.20
2022-08-30T10:20:14.360Z,2.20
2022-08-30T10:22:50.875Z,2.40
2022-08-30T10:25:38.428Z,2.03
2022-08-30T10:28:33.112Z,2.30
2022-08-30T10:31:12.191Z,2.22
2022-08-30T10:33:47.099Z,1.85
2022-08-30T10:36:19.409Z,2.40
2022-08-30T10:38:54.290Z,2.50
2022-08-30T10:41:46.240Z,2.10
2022-08-30T10:44:38.310Z,2.33
2022-08-30T10:47:50.315Z,2.47
2022-08-30T10:50:42.600Z,2.33
2022-08-30T10:53:22.973Z,2.20
2022-08-30T10:56:09.080Z,2.58
2022-08-30T10:58:41.983Z,2.83
2022-08-30T11:01:51.669Z,3.33
2022-08-30T11:04:52.154Z,2.92
2022-08-30T11:08:01.134Z,3.60
2022-08-30T11:11:13.026Z,3.63
2022-08-30T11:13:44.784Z,3.72
2022-08-30T11:16:18.282Z,3.72
2022-08-30T11:18:54.026Z,4.57
2022-08-30T11:21:41.591Z,3.83
2022-08-30T11:24:24.033Z,3.25
2022-08-30T11:26:59.230Z,44.72
2022-08-30T11:29:41.741Z,8.93
2022-08-30T11:32:26.218Z,4.20
2022-08-30T11:34:59.522Z,4.35
2022-08-30T11:37:50.737Z,3.60
2022-08-30T11:40:47.937Z,3.60
2022-08-30T11:43:56.069Z,4.22
2022-08-30T11:49:47.860Z,4.70
2022-08-30T11:52:36.617Z,5.05
2022-08-30T11:55:45.350Z,4.65
2022-08-30T11:58:44.250Z,5.30
2022-08-30T12:01:51.025Z,5.70
2022-08-30T12:04:38.974Z,5.68
2022-08-30T12:07:11.078Z,5.03
2022-08-30T12:10:01.698Z,4.93
2022-08-30T12:12:52.488Z,4.60
2022-08-30T12:15:50.008Z,5.55
2022-08-30T12:18:32.552Z,8.52
2022-08-30T12:21:43.818Z,6.97
2022-08-30T12:24:34.203Z,5.70
2022-08-30T12:27:07.278Z,4.50
2022-08-30T12:29:37.758Z,4.20
2022-08-30T12:32:20.246Z,4.80
2022-08-30T12:35:01.162Z,4.70
2022-08-30T12:37:38.489Z,3.88
2022-08-30T12:40:20.271Z,4.10
2022-08-30T12:43:00.863Z,4.40
2022-08-30T12:45:35.093Z,4.22
2022-08-30T12:48:16.085Z,4.35
2022-08-30T12:50:53.529Z,5.40
2022-08-30T12:53:44.672Z,5.05
2022-08-30T12:56:26.963Z,5.25
2022-08-30T12:59:07.871Z,5.28
2022-08-30T13:01:38.800Z,5.30
2022-08-30T13:04:24.197Z,4.88
2022-08-30T13:07:04.721Z,4.82
2022-08-30T13:09:49.324Z,4.40
2022-08-30T13:12:30.234Z,5.18
2022-08-30T13:15:21.284Z,4.88
2022-08-30T13:18:11.038Z,4.85
2022-08-30T13:20:40.708Z,4.70
2022-08-30T13:23:12.921Z,4.80
2022-08-30T13:25:42.742Z,5.45
2022-08-30T13:28:12.482Z,5.28
2022-08-30T13:30:42.414Z,5.72
2022-08-30T13:33:13.293Z,4.68
2022-08-30T13:35:44.223Z,5.85
2022-08-30T13:38:14.408Z,6.13
2022-08-30T13:40:44.416Z,6.50
2022-08-30T13:43:14.476Z,6.50
2022-08-30T13:45:45.138Z,7.30
2022-08-30T13:48:17.395Z,7.65
2022-08-30T13:50:47.690Z,6.63
2022-08-30T13:53:51.863Z,6.50
2022-08-30T13:56:09.001Z,8.35
2022-08-30T13:58:44.272Z,7.57
2022-08-30T14:01:16.516Z,7.85
2022-08-30T14:06:36.568Z,7.28
2022-08-30T14:09:08.858Z,7.28
2022-08-30T14:11:40.244Z,6.97
2022-08-30T14:14:16.078Z,6.43
2022-08-30T14:16:51.029Z,7.68
2022-08-30T14:19:21.474Z,7.03
2022-08-30T14:22:48.961Z,7.70
2022-08-30T14:25:19.395Z,7.03
2022-08-30T14:27:49.352Z,7.18
2022-08-30T14:30:21.240Z,7.38
2022-08-30T14:32:51.372Z,6.88
2022-08-30T14:35:23.833Z,7.65
2022-08-30T14:37:55.180Z,8.07
2022-08-30T14:40:24.915Z,7.40
2022-08-30T14:42:54.604Z,7.10
2022-08-30T14:45:24.211Z,7.25
2022-08-30T14:47:53.820Z,8.82
2022-08-30T14:50:23.608Z,7.20
2022-08-30T14:52:53.526Z,7.63
2022-08-30T14:55:23.601Z,8.13
2022-08-30T14:57:53.183Z,7.63
2022-08-30T15:00:24.372Z,7.60
2022-08-30T15:02:55.568Z,7.80
2022-08-30T15:05:25.207Z,7.07
2022-08-30T15:07:55.874Z,8.20
2022-08-30T15:10:26.271Z,7.10
2022-08-30T15:12:56.285Z,7.38
2022-08-30T15:15:26.773Z,7.88
2022-08-30T15:17:56.702Z,8.23
2022-08-30T15:20:26.750Z,7.10
2022-08-30T15:22:56.958Z,7.70
2022-08-30T15:25:27.635Z,7.55
2022-08-30T15:27:57.636Z,7.70
2022-08-30T15:30:27.541Z,8.30
2022-08-30T15:32:57.472Z,8.68
2022-08-30T15:37:48.707Z,9.20
2022-08-30T15:40:18.415Z,8.35
2022-08-30T15:42:49.853Z,9.95
2022-08-30T15:45:20.362Z,9.23
2022-08-30T15:47:50.157Z,10.02
2022-08-30T15:50:19.773Z,10.13
2022-08-30T15:52:49.411Z,10.00
2022-08-30T15:55:19.116Z,9.32
2022-08-30T15:57:49.701Z,8.85
2022-08-30T16:00:19.657Z,7.07
2022-08-30T16:02:51.357Z,6.78
2022-08-30T16:05:25.378Z,6.95
2022-08-30T16:07:55.376Z,6.85
2022-08-30T16:10:25.389Z,7.25
2022-08-30T16:13:01.797Z,6.53
2022-08-30T16:15:33.065Z,5.70
2022-08-30T16:18:02.944Z,7.15
2022-08-30T16:20:32.970Z,6.10
2022-08-30T16:23:02.929Z,5.85
2022-08-30T16:25:40.026Z,5.95
2022-08-30T16:28:11.042Z,6.28
2022-08-30T16:30:40.597Z,6.45
2022-08-30T16:33:10.224Z,5.32
2022-08-30T16:35:39.793Z,5.20
2022-08-30T16:38:09.394Z,5.75
2022-08-30T16:40:39.164Z,5.05
2022-08-30T16:43:12.107Z,5.65
2022-08-30T16:45:42.770Z,5.07
2022-08-30T16:48:14.557Z,5.40
2022-08-30T16:50:46.612Z,5.50
2022-08-30T16:53:16.817Z,6.05
2022-08-30T16:55:46.689Z,5.07
2022-08-30T16:58:18.940Z,4.38
2022-08-30T17:00:53.489Z,4.93
2022-08-30T17:03:23.146Z,4.25
2022-08-30T17:05:52.898Z,4.75
2022-08-30T17:08:27.635Z,4.90
2022-08-30T17:10:58.039Z,5.43
2022-08-30T17:13:28.122Z,5.20
2022-08-30T17:15:58.311Z,5.90
2022-08-30T17:18:28.607Z,6.00
2022-08-30T17:20:58.908Z,6.68
2022-08-30T17:23:38.444Z,6.93
2022-08-30T17:26:08.592Z,6.13
2022-08-30T17:28:38.788Z,6.07
2022-08-30T17:31:09.092Z,5.82
2022-08-30T17:33:41.532Z,5.90
2022-08-30T17:36:12.872Z,5.20
2022-08-30T17:38:44.831Z,5.55
2022-08-30T17:41:15.428Z,5.68
2022-08-30T17:43:45.002Z,6.43
2022-08-30T17:46:22.139Z,6.85
2022-08-30T17:51:47.885Z,6.90
2022-08-30T17:54:18.077Z,6.25
2022-08-30T17:56:47.806Z,6.97
2022-08-30T17:59:18.846Z,6.28
2022-08-30T18:01:49.849Z,6.00
2022-08-30T18:04:20.421Z,7.65
2022-08-30T18:06:50.616Z,6.25
2022-08-30T18:09:21.525Z,6.55
2022-08-30T18:11:52.516Z,6.05
2022-08-30T18:14:26.928Z,6.20
2022-08-30T18:16:56.874Z,6.63
2022-08-30T18:19:28.114Z,7.18
2022-08-30T18:21:58.812Z,6.75
2022-08-30T18:24:29.484Z,6.55
2022-08-30T18:27:00.217Z,6.57
2022-08-30T18:29:32.778Z,5.45
2022-08-30T18:32:04.626Z,5.57
2022-08-30T18:34:35.594Z,6.07
2022-08-30T18:37:05.234Z,5.35
2022-08-30T18:39:41.345Z,5.85
2022-08-30T18:42:11.727Z,6.32
2022-08-30T18:44:43.499Z,5.82
2022-08-30T18:47:14.352Z,5.88
2022-08-30T18:49:44.207Z,6.22
2022-08-30T18:52:14.029Z,5.70
2022-08-30T18:54:51.911Z,6.32
2022-08-30T18:57:23.797Z,6.03
2022-08-30T18:59:53.445Z,6.22
2022-08-30T19:02:27.603Z,5.45
2022-08-30T19:04:59.100Z,5.63
2022-08-30T19:07:34.377Z,6.00
2022-08-30T19:10:08.709Z,5.30
2022-08-30T19:12:42.792Z,4.95
2022-08-30T19:15:13.062Z,6.72
2022-08-30T19:17:45.768Z,5.05
2022-08-30T19:20:20.926Z,5.63
2022-08-30T19:23:10.021Z,6.07
2022-08-30T19:25:42.174Z,5.85
2022-08-30T19:28:13.366Z,5.22
2022-08-30T19:30:43.508Z,5.18
2022-08-30T19:33:13.662Z,4.55
2022-08-30T19:35:45.611Z,6.05
2022-08-30T19:38:18.597Z,6.95
2022-08-30T19:40:52.405Z,5.93
2022-08-30T19:43:24.014Z,6.43
2022-08-30T19:46:01.110Z,6.47
2022-08-30T19:48:32.197Z,6.40
2022-08-30T19:51:03.019Z,6.93
2022-08-30T19:53:35.805Z,7.20
2022-08-30T19:56:06.005Z,5.82
2022-08-30T19:58:37.083Z,5.18
2022-08-30T20:01:12.086Z,6.13
2022-08-30T20:03:42.615Z,5.47
2022-08-30T20:06:13.087Z,6.07
2022-08-30T20:08:42.882Z,6.53
2022-08-30T20:11:16.262Z,6.78
2022-08-30T20:13:48.254Z,6.68
2022-08-30T20:16:19.303Z,6.95
2022-08-30T20:18:50.628Z,7.18
2022-08-30T20:21:20.556Z,6.80
2022-08-30T20:23:50.192Z,6.07
2022-08-30T20:24:26.175Z,6.72
2022-08-30T20:26:19.760Z,6.00
2022-08-30T20:28:49.410Z,6.05
2022-08-30T20:31:19.108Z,6.07
2022-08-30T20:33:48.815Z,5.93
2022-08-30T20:36:18.523Z,6.00
2022-08-30T20:38:48.169Z,6.97
2022-08-30T20:41:20.649Z,6.82
2022-08-30T20:43:51.359Z,5.95
2022-08-30T20:46:23.012Z,5.90
2022-08-30T20:48:52.747Z,6.65
2022-08-30T20:51:24.844Z,5.60
2022-08-30T20:53:55.063Z,6.18
2022-08-30T20:56:24.904Z,5.20
2022-08-30T20:58:54.553Z,4.70
2022-08-30T21:01:25.048Z,4.53
2022-08-30T21:03:54.666Z,4.47
2022-08-30T21:06:25.202Z,5.85
2022-08-30T21:08:55.603Z,5.10
2022-08-30T21:11:25.568Z,4.95
2022-08-30T21:13:55.998Z,4.72
2022-08-30T21:16:26.046Z,5.57
2022-08-30T21:18:56.618Z,4.82
2022-08-30T21:21:28.400Z,5.10
2022-08-30T21:24:02.728Z,4.63
2022-08-30T21:26:33.015Z,4.60
2022-08-30T21:29:03.884Z,4.30
2022-08-30T21:31:34.433Z,4.60
2022-08-30T21:34:04.429Z,4.05
2022-08-30T21:36:53.604Z,4.80
2022-08-30T21:39:29.047Z,4.10
2022-08-30T21:41:59.159Z,5.28
2022-08-30T21:44:29.833Z,4.70
2022-08-30T21:47:00.356Z,3.83
2022-08-30T21:49:29.904Z,4.15
2022-08-30T21:52:00.426Z,4.07
2022-08-30T21:54:31.438Z,4.28
2022-08-30T21:57:03.359Z,4.07
2022-08-30T21:59:33.466Z,4.22
2022-08-30T22:02:03.120Z,4.03
2022-08-30T22:04:32.918Z,4.18
2022-08-30T22:07:03.925Z,4.10
2022-08-30T22:09:33.567Z,3.88
2022-08-30T22:12:03.838Z,4.10
2022-08-30T22:14:36.980Z,4.30
2022-08-30T22:17:06.968Z,4.30
2022-08-30T22:19:37.140Z,4.30
2022-08-30T22:22:07.676Z,4.32
2022-08-30T22:24:37.583Z,5.28
2022-08-30T22:27:07.648Z,5.13
2022-08-30T22:29:37.742Z,5.25
2022-08-30T22:32:08.356Z,5.15
2022-08-30T22:34:38.318Z,4.90
2022-08-30T22:37:08.377Z,4.85
2022-08-30T22:39:38.813Z,4.43
2022-08-30T22:42:09.475Z,3.95
2022-08-30T22:44:39.149Z,4.72
2022-08-30T22:47:09.798Z,4.90
2022-08-30T22:49:40.416Z,4.32
2022-08-30T22:52:10.636Z,4.03
2022-08-30T22:54:40.243Z,4.63
2022-08-30T22:57:10.823Z,4.53
2022-08-30T22:59:40.344Z,4.80
2022-08-30T23:02:10.486Z,4.95
2022-08-30T23:04:40.815Z,5.22
2022-08-30T23:07:10.494Z,4.35
2022-08-30T23:09:40.038Z,4.20
2022-08-30T23:12:09.863Z,5.30
2022-08-30T23:14:39.539Z,6.30
2022-08-30T23:17:09.102Z,7.20
2022-08-30T23:19:38.959Z,6.22
2022-08-30T23:22:08.505Z,5.88
2022-08-30T23:24:57.715Z,5.30
2022-08-30T23:27:47.521Z,6.05
2022-08-30T23:30:36.688Z,5.97
2022-08-30T23:33:26.060Z,5.57
2022-08-30T23:36:15.619Z,4.63
2022-08-30T23:39:04.985Z,6.85
2022-08-30T23:41:54.116Z,6.20
2022-08-30T23:44:43.888Z,6.07
2022-08-30T23:47:33.515Z,6.60
2022-08-30T23:50:23.072Z,7.30
2022-08-30T23:53:12.740Z,10.52
2022-08-30T23:56:02.653Z,9.15
2022-08-30T23:58:52.183Z,12.48
